Terminal Aerodrome Forecast
Issued by NWS Lake Charles, LA

Home | Current Version | Previous Version | Text Only | Print | Product List | Glossary On
Versions: 1 2 3 4 5 6 7 8 9 10 11 12 13 14 15 16 17
305
FTUS44 KLCH 291720
TAFLCH
TAF
KLCH 291720Z 2918/3018 VRB05KT P6SM BKN120
     FM291900 13006KT P6SM VCSH SCT035 BKN100
     FM300200 VRB05KT P6SM VCSH SCT060 OVC120
     FM301500 10009KT P6SM VCSH OVC050=

USA.gov is the U.S. government's official web portal to all federal, state and local government web resources and services.